Other Surface Observations
Issued by NWS Missoula, MT

Home | Current Version | Previous Version | Text Only | Print | Product List | Glossary On
Versions: 1 2 3 4 5 6 7 8 9 10 11 12 13 14 15 16 17 18 19 20 21 22 23 24 25 26 27 28 29 30 31 32 33 34 35 36 37 38 39 40 41 42 43 44 45 46 47 48 49 50
000
SXUS55 KMSO 211603
OSOMSO
MONTANA AWOS SUMMARY
NATIONAL WEATHER SERVICE MISSOULA MT
903 AM MST TUE FEB 21 2017

Montana AWOS Reports

LAUREL      |K6S8 211555Z AUTO 00000KT 40SM 09/M01 A2972 RMK AO1 T00941010
SCOBEY      |K9S2 211555Z AUTO 23005KT 40SM 03/M02 A2963 RMK AO1 T00331016
EKALAKA     |K97M 211555Z AUTO 00000KT 40SM 12/M01 A2973 RMK AO1 T01171005
TWIN BRIDGES|K7S1 211555Z AUTO 11008KT 40SM 04/M02 A2974 RMK AO1 T00441021
PLAINS      |KS34 211555Z AUTO 00000KT 1/4SM HZ 00/M03 A2968 RMK AO1 T00001027




USA.gov is the U.S. government's official web portal to all federal, state and local government web resources and services.